Airfield :







YOU CAN JOIN US ON...

 
LOGIN :

Register | Disclaimer

   EN    FR    IT 

 









Legend :    VFR   Marginal VFR   IFR   Intensive IFR   Very Intensive IFR
Visi :
Ceiling :
>= 8 km
>= 3000ft
5 to 8 km
1000 to 3000 ft
1500m to 5 km
500 to 1000 ft
800 to 1500m
200 to 500 ft
< 800m
< 200 ft
Symbols :   Thunderstorms  Fog  Heavy snow  Heavy precipitations  Wind > 20 kt






- Airport Elevation : 234 ft
- IATA code : PBG


KPBG - Plattsburgh International

CURRENT METAR :
  • 280806Z AUTO 16008KT 1 3/4SM -SN BR BKN037 OVC055 M05/M07 A2949 RMK AO2 P0000 T10501067

EXPIRED METARs :
  • 280753Z AUTO 17007KT 6SM -SN BKN055 OVC070 M05/M08 A2949 RMK AO2 UPE14SNB46 SLP988 P0000 T10501078
  • 280653Z AUTO 24008G19KT 200V290 9SM UP FEW016 BKN035 BKN060 M04/M09 A2948 RMK AO2 UPB53SNB20E51 SLP986 P0000 T10391089
  • 280632Z AUTO 00000KT 1 3/4SM -SN FEW015 BKN019 OVC033 M04/M07 A2949 RMK AO2 SNB20 P0000 T10441072
  • 280626Z AUTO 21005KT 5SM -SN BKN023 OVC033 M04/M08 A2949 RMK AO2 SNB20 P0000 T10441078
  • 280553Z AUTO VRB06KT 10SM OVC034 M03/M09 A2948 RMK AO2 SNB33E43 SLP986 P0000 60000 T10331089 11017 21033 53004

TAF KPBG
Valid from the 28 at 06:00 until the 29 at 06:00 UTC


280537Z 2806/2906 24008KT P6SM VCSH OVC040
FM281300 25014G23KT P6SM VCSH OVC050
FM282000 23010KT P6SM VCSH OVC050
FM290000 26007KT P6SM VCSH BKN050



MET'MAP, your aeronautical weather chart ! - Copyright ORBIFLY December 2007 - Disclaimer

ORBIFLY MET'MAP TEAM :

Programming & Development : Alexandra Zaïnal
Concept & original design : Baudouin d'Aumeries
Assistance for programming : Marc-Olivier Méhu
Technical & hardware support : Manuel Goepfert

Contact : metmap@orbifly.com




SOURCES & CREDITS :

   NOAA